createdAt,value
2022-08-05T00:01:36.196Z,49.10
2022-08-05T00:04:18.457Z,49.30
2022-08-05T00:06:47.728Z,49.13
2022-08-05T00:09:22.211Z,49.72
2022-08-05T00:11:55.790Z,49.31
2022-08-05T00:14:29.264Z,49.58
2022-08-05T00:17:01.903Z,49.69
2022-08-05T00:19:33.322Z,49.39
2022-08-05T00:22:11.114Z,49.28
2022-08-05T00:24:42.831Z,49.92
2022-08-05T00:27:14.070Z,49.53
2022-08-05T00:29:45.809Z,49.68
2022-08-05T00:32:15.440Z,49.65
2022-08-05T00:35:03.535Z,49.51
2022-08-05T00:37:52.645Z,50.01
2022-08-05T00:40:28.996Z,49.53
2022-08-05T00:43:01.497Z,49.82
2022-08-05T00:45:38.346Z,50.04
2022-08-05T00:48:10.022Z,49.58
2022-08-05T00:50:41.197Z,50.16
2022-08-05T00:54:01.375Z,50.13
2022-08-05T00:56:01.735Z,50.40
2022-08-05T00:58:30.523Z,50.17
2022-08-05T01:00:59.429Z,50.31
2022-08-05T01:03:31.001Z,50.19
2022-08-05T01:06:05.494Z,50.22
2022-08-05T01:08:43.058Z,50.56
2022-08-05T01:11:36.672Z,50.53
2022-08-05T01:14:15.245Z,50.70
2022-08-05T01:16:53.741Z,50.23
2022-08-05T01:20:02.240Z,50.86
2022-08-05T01:22:47.242Z,50.69
2022-08-05T01:25:54.926Z,50.25
2022-08-05T01:28:34.928Z,50.77
2022-08-05T01:31:12.092Z,50.58
2022-08-05T01:33:51.980Z,50.78
2022-08-05T01:36:28.699Z,50.71
2022-08-05T01:39:00.289Z,50.85
2022-08-05T01:41:37.492Z,50.99
2022-08-05T01:44:11.213Z,51.08
2022-08-05T01:46:46.118Z,50.92
2022-08-05T01:49:24.356Z,50.84
2022-08-05T01:51:59.503Z,50.70
2022-08-05T01:54:45.999Z,51.41
2022-08-05T01:58:10.811Z,51.31
2022-08-05T02:00:12.766Z,51.36
2022-08-05T02:02:53.612Z,51.65
2022-08-05T02:05:31.263Z,50.92
2022-08-05T02:08:06.856Z,51.10
2022-08-05T02:10:43.171Z,51.75
2022-08-05T02:13:18.565Z,51.78
2022-08-05T02:15:57.499Z,52.14
2022-08-05T02:18:34.944Z,51.90
2022-08-05T02:21:15.275Z,51.77
2022-08-05T02:23:53.458Z,52.07
2022-08-05T02:26:38.962Z,51.70
2022-08-05T02:29:58.143Z,52.01
2022-08-05T02:32:24.242Z,51.55
2022-08-05T02:35:02.027Z,51.95
2022-08-05T02:37:47.899Z,52.09
2022-08-05T02:40:26.000Z,52.42
2022-08-05T02:42:58.139Z,52.36
2022-08-05T02:45:52.080Z,52.60
2022-08-05T02:48:20.924Z,52.71
2022-08-05T02:51:01.190Z,52.28
2022-08-05T02:53:35.979Z,52.51
2022-08-05T02:56:15.918Z,52.12
2022-08-05T02:58:51.664Z,52.60
2022-08-05T03:01:27.141Z,52.73
2022-08-05T03:04:11.994Z,52.48
2022-08-05T03:06:56.095Z,52.35
2022-08-05T03:09:38.301Z,52.85
2022-08-05T03:12:34.943Z,53.00
2022-08-05T03:15:06.908Z,52.42
2022-08-05T03:17:41.715Z,52.96
2022-08-05T03:20:13.811Z,52.97
2022-08-05T03:22:44.271Z,53.13
2022-08-05T03:25:32.933Z,52.97
2022-08-05T03:28:04.942Z,52.90
2022-08-05T03:30:35.137Z,52.86
2022-08-05T03:33:07.694Z,52.83
2022-08-05T03:35:41.241Z,52.92
2022-08-05T03:38:14.693Z,52.61
2022-08-05T03:40:47.235Z,52.97
2022-08-05T03:44:08.039Z,52.79
2022-08-05T03:46:14.478Z,52.44
2022-08-05T03:48:45.311Z,52.36
2022-08-05T03:52:38.611Z,52.90
2022-08-05T03:55:34.229Z,52.70
2022-08-05T03:57:16.719Z,52.69
2022-08-05T03:59:54.799Z,52.22
2022-08-05T04:02:34.785Z,51.66
2022-08-05T04:05:11.837Z,51.56
2022-08-05T04:07:57.511Z,51.78
2022-08-05T04:10:33.362Z,51.80
2022-08-05T04:13:08.831Z,51.52
2022-08-05T04:16:02.920Z,52.42
2022-08-05T04:18:30.648Z,52.36
2022-08-05T04:20:59.993Z,52.19
2022-08-05T04:24:06.040Z,52.00
2022-08-05T04:26:20.972Z,51.70
2022-08-05T04:28:51.185Z,52.53
2022-08-05T04:38:01.417Z,52.75
2022-08-05T04:40:19.525Z,52.93
2022-08-05T04:42:49.450Z,53.18
2022-08-05T04:45:31.316Z,52.84
2022-08-05T04:48:10.225Z,53.48
2022-08-05T04:51:02.044Z,53.90
2022-08-05T04:53:33.666Z,53.42
2022-08-05T04:56:33.245Z,53.40
2022-08-05T04:58:56.427Z,53.81
2022-08-05T05:02:06.090Z,54.14
2022-08-05T05:04:18.109Z,54.68
2022-08-05T05:06:49.261Z,54.50
2022-08-05T05:09:21.009Z,53.85
2022-08-05T05:11:55.522Z,54.08
2022-08-05T05:14:27.848Z,53.95
2022-08-05T05:17:01.442Z,54.63
2022-08-05T05:19:36.900Z,54.78
2022-08-05T05:22:22.907Z,55.03
2022-08-05T05:24:58.063Z,54.78
2022-08-05T05:27:44.376Z,54.63
2022-08-05T05:30:29.226Z,54.76
2022-08-05T05:33:03.561Z,54.42
2022-08-05T05:35:43.251Z,54.27
2022-08-05T05:38:13.426Z,54.28
2022-08-05T05:40:49.772Z,54.14
2022-08-05T05:43:57.267Z,54.11
2022-08-05T09:03:40.530Z,47.61
2022-08-05T09:06:18.599Z,47.55
2022-08-05T09:08:50.387Z,46.58
2022-08-05T09:11:19.298Z,45.82
2022-08-05T09:14:54.696Z,45.91
2022-08-05T09:16:57.845Z,46.75
2022-08-05T09:19:27.851Z,46.62
2022-08-05T09:22:22.658Z,47.13
2022-08-05T09:25:13.831Z,47.06
2022-08-05T09:28:05.811Z,47.46
2022-08-05T09:30:36.221Z,46.61
2022-08-05T09:33:07.779Z,45.11
2022-08-05T09:35:36.671Z,44.05
2022-08-05T09:38:16.422Z,43.97
2022-08-05T09:40:52.158Z,44.24
2022-08-05T09:43:40.682Z,42.85
2022-08-05T09:46:28.543Z,42.28
2022-08-05T09:49:07.625Z,41.53
2022-08-05T09:51:49.372Z,40.96
2022-08-05T09:54:32.310Z,40.94
2022-08-05T09:57:01.717Z,40.68
2022-08-05T09:59:37.021Z,40.67
2022-08-05T10:02:07.254Z,41.16
2022-08-05T10:04:41.123Z,40.88
2022-08-05T10:07:20.064Z,40.54
2022-08-05T10:10:14.021Z,39.58
2022-08-05T10:12:49.857Z,40.47
2022-08-05T10:15:28.250Z,40.10
2022-08-05T10:18:16.756Z,39.18
2022-08-05T10:20:49.616Z,38.74
2022-08-05T10:23:55.436Z,38.93
2022-08-05T10:26:15.048Z,38.88
2022-08-05T10:28:46.656Z,37.56
2022-08-05T10:32:54.429Z,37.27
2022-08-05T10:34:08.129Z,37.66
2022-08-05T10:36:39.133Z,37.48
2022-08-05T10:39:24.530Z,37.07
2022-08-05T10:42:13.587Z,37.17
2022-08-05T10:44:48.747Z,36.88
2022-08-05T10:47:26.614Z,36.96
2022-08-05T10:50:28.062Z,36.40
2022-08-05T10:53:06.632Z,36.37
2022-08-05T10:56:03.749Z,36.45
2022-08-05T10:58:47.790Z,35.83
2022-08-05T11:01:28.041Z,35.93
2022-08-05T11:04:12.156Z,34.69
2022-08-05T11:07:09.348Z,34.53
2022-08-05T11:09:47.263Z,35.18
2022-08-05T11:12:54.221Z,34.36
2022-08-05T11:16:01.007Z,34.22
2022-08-05T11:18:32.469Z,34.42
2022-08-05T11:21:06.196Z,34.43
2022-08-05T11:24:04.924Z,33.15
2022-08-05T11:26:43.163Z,33.23
2022-08-05T11:29:38.193Z,32.94
2022-08-05T11:35:04.327Z,31.91
2022-08-05T11:38:28.673Z,31.40
2022-08-05T11:41:15.429Z,31.12
2022-08-05T11:44:06.252Z,30.24
2022-08-05T11:47:09.615Z,30.81
2022-08-05T11:49:33.830Z,29.92
2022-08-05T11:52:11.264Z,29.62
2022-08-05T11:54:41.827Z,28.87
2022-08-05T11:57:26.059Z,30.23
2022-08-05T11:59:56.798Z,29.87
2022-08-05T12:02:33.431Z,29.94
2022-08-05T12:05:07.101Z,30.05
2022-08-05T12:08:08.220Z,30.07
2022-08-05T12:10:43.731Z,29.70
2022-08-05T12:13:47.848Z,30.20
2022-08-05T12:16:14.508Z,28.73
2022-08-05T12:18:49.101Z,28.47
2022-08-05T12:21:26.751Z,28.58
2022-08-05T12:24:07.697Z,29.50
2022-08-05T12:26:39.230Z,30.44
2022-08-05T12:29:16.307Z,30.26
2022-08-05T12:31:53.953Z,31.36
2022-08-05T12:34:31.382Z,30.92
2022-08-05T12:37:10.733Z,30.00
2022-08-05T12:39:41.992Z,29.96
2022-08-05T12:42:20.297Z,30.19
2022-08-05T12:44:49.864Z,29.21
2022-08-05T12:47:30.676Z,28.78
2022-08-05T12:50:03.837Z,27.46
2022-08-05T12:52:39.742Z,28.02
2022-08-05T12:55:25.357Z,26.26
2022-08-05T12:58:49.408Z,26.60
2022-08-05T13:02:00.765Z,25.67
2022-08-05T13:03:42.092Z,25.70
2022-08-05T13:06:19.657Z,25.37
2022-08-05T13:08:52.267Z,25.88
2022-08-05T13:11:57.860Z,26.12
2022-08-05T13:14:24.808Z,26.24
2022-08-05T13:17:11.587Z,25.86
2022-08-05T13:19:52.899Z,25.70
2022-08-05T13:22:28.484Z,25.82
2022-08-05T13:25:05.668Z,25.51
2022-08-05T13:27:40.116Z,24.79
2022-08-05T13:30:35.313Z,24.53
2022-08-05T13:33:02.129Z,23.40
2022-08-05T13:35:47.342Z,23.16
2022-08-05T13:38:30.482Z,22.84
2022-08-05T13:41:00.763Z,21.65
2022-08-05T13:43:44.163Z,22.07
2022-08-05T13:46:38.032Z,22.08
2022-08-05T13:49:10.077Z,22.51
2022-08-05T13:51:46.035Z,23.04
2022-08-05T13:54:20.965Z,22.88
2022-08-05T13:56:54.571Z,21.52
2022-08-05T13:59:27.016Z,21.64
2022-08-05T14:02:00.085Z,21.56
2022-08-05T14:04:49.391Z,21.86
2022-08-05T14:07:55.584Z,21.49
2022-08-05T14:10:13.824Z,21.43
2022-08-05T14:12:48.746Z,20.97
2022-08-05T14:16:04.956Z,20.04
2022-08-05T14:18:14.883Z,19.81
2022-08-05T14:20:48.186Z,20.38
2022-08-05T14:23:23.432Z,19.84
2022-08-05T14:25:58.490Z,19.40
2022-08-05T14:28:29.882Z,18.87
2022-08-05T14:31:01.469Z,18.29
2022-08-05T14:33:59.647Z,17.56
2022-08-05T14:36:22.182Z,17.84
2022-08-05T14:38:51.843Z,17.50
2022-08-05T14:41:22.059Z,17.22
2022-08-05T14:44:00.095Z,16.56
2022-08-05T14:46:35.033Z,17.20
2022-08-05T14:49:08.125Z,16.78
2022-08-05T14:51:38.204Z,16.72
2022-08-05T14:54:27.664Z,16.37
2022-08-05T14:56:57.057Z,16.37
2022-08-05T14:59:29.380Z,17.07
2022-08-05T15:02:01.438Z,17.76
2022-08-05T15:04:33.267Z,18.10
2022-08-05T15:07:02.318Z,17.63
2022-08-05T15:09:51.968Z,18.53
2022-08-05T15:12:21.001Z,19.94
2022-08-05T15:15:00.944Z,20.53
2022-08-05T15:17:45.834Z,21.71
2022-08-05T15:20:18.771Z,22.04
2022-08-05T15:22:52.144Z,23.39
2022-08-05T15:25:41.203Z,22.90
2022-08-05T15:28:28.938Z,24.04
2022-08-05T15:31:03.652Z,23.82
2022-08-05T15:34:18.468Z,24.23
2022-08-05T15:36:30.964Z,25.44
2022-08-05T15:40:58.327Z,25.52
2022-08-05T15:41:58.161Z,26.52
2022-08-05T15:44:30.288Z,25.93
2022-08-05T15:47:02.033Z,25.83
2022-08-05T15:49:48.276Z,25.81
2022-08-05T15:52:52.036Z,26.27
2022-08-05T15:55:17.662Z,26.30
2022-08-05T15:57:49.005Z,26.29
2022-08-05T16:00:30.635Z,26.70
2022-08-05T16:03:11.051Z,27.04
2022-08-05T16:05:47.430Z,27.53
2022-08-05T16:08:19.854Z,27.59
2022-08-05T16:10:49.278Z,27.64
2022-08-05T16:13:19.321Z,28.02
2022-08-05T16:15:53.133Z,28.30
2022-08-05T16:18:22.252Z,28.33
2022-08-05T16:21:04.375Z,28.25
2022-08-05T16:23:54.682Z,28.34
2022-08-05T16:26:26.493Z,29.17
2022-08-05T16:28:57.300Z,28.93
2022-08-05T16:31:27.113Z,29.11
2022-08-05T16:34:16.929Z,29.73
2022-08-05T16:36:47.626Z,29.69
2022-08-05T16:39:20.765Z,29.83
2022-08-05T16:42:14.084Z,29.92
2022-08-05T16:44:39.620Z,30.68
2022-08-05T16:47:28.928Z,30.48
2022-08-05T16:49:57.701Z,30.55
2022-08-05T16:52:32.538Z,30.61
2022-08-05T16:55:04.356Z,30.56
2022-08-05T16:57:53.832Z,31.29
2022-08-05T17:00:26.037Z,30.95
2022-08-05T17:03:03.841Z,30.89
2022-08-05T17:05:44.494Z,30.94
2022-08-05T17:08:36.100Z,31.46
2022-08-05T17:11:16.693Z,31.95
2022-08-05T17:13:46.818Z,31.65
2022-08-05T17:16:35.875Z,31.47
2022-08-05T17:19:07.602Z,31.41
2022-08-05T17:21:40.079Z,30.41
2022-08-05T17:24:19.324Z,30.39
2022-08-05T17:27:01.116Z,30.32
2022-08-05T17:29:33.523Z,30.71
2022-08-05T17:32:11.355Z,30.35
2022-08-05T17:34:41.158Z,30.60
2022-08-05T17:37:29.384Z,32.25
2022-08-05T17:40:02.001Z,34.87
2022-08-05T17:42:33.066Z,37.07
2022-08-05T17:45:09.914Z,37.63
2022-08-05T17:47:54.445Z,38.54
2022-08-05T17:50:29.689Z,39.32
2022-08-05T17:53:01.060Z,40.08
2022-08-05T17:55:37.976Z,40.81
2022-08-05T17:58:12.303Z,40.91
2022-08-05T18:00:47.092Z,41.25
2022-08-05T18:06:11.960Z,42.96
2022-08-05T18:08:52.057Z,43.11
2022-08-05T18:11:32.890Z,43.42
2022-08-05T18:17:06.612Z,42.77
2022-08-05T18:20:14.888Z,43.74
2022-08-05T18:22:54.221Z,43.80
2022-08-05T18:25:23.929Z,44.42
2022-08-05T18:27:55.330Z,44.16
2022-08-05T18:30:29.259Z,44.58
2022-08-05T18:33:00.395Z,45.81
2022-08-05T18:35:49.735Z,45.82
2022-08-05T18:38:26.074Z,47.25
2022-08-05T18:41:58.406Z,47.50
2022-08-05T18:43:48.654Z,47.94
2022-08-05T18:46:19.795Z,48.03
2022-08-05T18:48:52.758Z,47.95
2022-08-05T18:52:04.188Z,49.13
2022-08-05T18:54:31.277Z,49.67
2022-08-05T18:57:01.430Z,49.31
2022-08-05T18:59:44.356Z,50.16
2022-08-05T19:02:27.877Z,50.78
2022-08-05T19:06:06.042Z,50.77
2022-08-05T19:08:01.832Z,50.83
2022-08-05T19:10:31.712Z,51.46
2022-08-05T19:13:02.464Z,51.71
2022-08-05T19:15:58.902Z,51.82
2022-08-05T19:18:26.283Z,53.30
2022-08-05T19:20:56.751Z,52.62
2022-08-05T19:24:07.430Z,51.93
2022-08-05T19:26:16.739Z,53.03
2022-08-05T19:28:46.135Z,52.79
2022-08-05T19:31:21.393Z,52.61
2022-08-05T19:33:56.500Z,53.92
2022-08-05T19:36:29.393Z,54.06
2022-08-05T19:39:02.924Z,54.73
2022-08-05T19:41:58.397Z,54.20
2022-08-05T19:44:23.300Z,53.65
2022-08-05T19:47:01.749Z,53.22
2022-08-05T19:49:31.683Z,53.33
2022-08-05T19:52:08.740Z,52.83
2022-08-05T19:54:52.492Z,52.32
2022-08-05T19:57:49.239Z,52.15
2022-08-05T20:00:12.015Z,51.01
2022-08-05T20:02:42.550Z,50.84
2022-08-05T20:05:16.607Z,50.25
2022-08-05T20:07:58.780Z,50.05
2022-08-05T20:10:30.466Z,50.21
2022-08-05T20:12:59.381Z,49.66
2022-08-05T20:15:51.862Z,48.94
2022-08-05T20:18:33.779Z,48.06
2022-08-05T20:21:07.125Z,47.56
2022-08-05T20:23:44.492Z,46.88
2022-08-05T20:26:27.105Z,46.97
2022-08-05T20:29:00.665Z,46.37
2022-08-05T20:31:42.147Z,46.38
2022-08-05T20:34:20.488Z,46.19
2022-08-05T20:36:49.226Z,45.81
2022-08-05T20:39:18.872Z,45.84
2022-08-05T20:41:48.563Z,45.91
2022-08-05T20:44:29.108Z,46.17
2022-08-05T20:47:00.943Z,46.28
2022-08-05T20:49:33.196Z,46.04
2022-08-05T20:52:07.264Z,46.18
2022-08-05T20:54:42.747Z,45.81
2022-08-05T20:57:14.170Z,46.19
2022-08-05T21:00:11.075Z,46.07
2022-08-05T21:02:39.247Z,46.42
2022-08-05T21:05:11.377Z,46.26
2022-08-05T21:07:50.987Z,46.12
2022-08-05T21:10:21.915Z,46.35
2022-08-05T21:13:08.935Z,46.59
2022-08-05T21:15:44.326Z,46.96
2022-08-05T21:18:13.301Z,47.55
2022-08-05T21:20:44.141Z,47.71
2022-08-05T21:23:15.157Z,47.85
2022-08-05T21:25:45.610Z,47.68
2022-08-05T21:28:18.592Z,47.24
2022-08-05T21:30:48.376Z,47.09
2022-08-05T21:33:22.598Z,46.88
2022-08-05T21:35:58.398Z,46.35
2022-08-05T21:38:28.657Z,46.33
2022-08-05T21:40:57.936Z,45.82
2022-08-05T21:43:26.708Z,46.13
2022-08-05T21:46:11.929Z,45.43
2022-08-05T21:48:41.123Z,45.40
2022-08-05T21:52:15.532Z,44.84
2022-08-05T21:54:03.910Z,44.23
2022-08-05T21:56:32.906Z,43.83
2022-08-05T21:59:04.063Z,44.20
2022-08-05T22:01:37.020Z,44.33
2022-08-05T22:04:06.159Z,44.12
2022-08-05T22:06:43.839Z,44.50
2022-08-05T22:09:21.174Z,44.08
2022-08-05T22:11:50.513Z,43.94
2022-08-05T22:14:35.876Z,43.80
2022-08-05T22:17:07.706Z,43.73
2022-08-05T22:20:03.443Z,43.89
2022-08-05T22:22:29.412Z,43.92
2022-08-05T22:25:21.277Z,43.78
2022-08-05T22:28:09.028Z,43.68
2022-08-05T22:30:44.191Z,43.41
2022-08-05T22:33:58.072Z,43.23
2022-08-05T22:36:15.841Z,44.02
2022-08-05T22:38:48.707Z,44.14
2022-08-05T22:42:05.445Z,45.47
2022-08-05T22:44:09.433Z,47.74
2022-08-05T22:46:41.310Z,50.70
2022-08-05T22:49:23.471Z,49.71
2022-08-05T22:52:05.293Z,52.14
2022-08-05T22:54:38.878Z,52.12
2022-08-05T22:57:08.651Z,52.67
2022-08-05T22:59:48.287Z,51.20
2022-08-05T23:02:28.993Z,50.94
2022-08-05T23:05:02.029Z,50.84
2022-08-05T23:07:44.795Z,50.59
2022-08-05T23:10:16.382Z,51.09
2022-08-05T23:12:51.717Z,51.27
2022-08-05T23:15:29.001Z,52.10
2022-08-05T23:18:02.214Z,53.27
2022-08-05T23:20:33.505Z,53.33
2022-08-05T23:23:08.703Z,51.72
2022-08-05T23:25:52.346Z,51.70
2022-08-05T23:28:26.875Z,52.00
2022-08-05T23:31:16.620Z,52.84
2022-08-05T23:34:04.477Z,53.97
2022-08-05T23:36:38.401Z,53.54
2022-08-05T23:39:10.293Z,53.71
2022-08-05T23:41:48.544Z,53.03
2022-08-05T23:44:19.914Z,52.90
2022-08-05T23:46:53.883Z,54.28
2022-08-05T23:49:33.733Z,53.32
2022-08-05T23:52:20.564Z,52.85
2022-08-05T23:54:51.077Z,53.20
2022-08-05T23:57:21.630Z,53.58
